sensor_id;sensor_type;location;lat;lon;timestamp;pressure;altitude;pressure_sealevel;temperature;humidity
55070;BME280;40967;52.070;8.596;2023-03-14T00:02:16;97970.94;;;10.85;86.39
55070;BME280;40967;52.070;8.596;2023-03-14T00:04:42;97960.22;;;10.89;86.61
55070;BME280;40967;52.070;8.596;2023-03-14T00:20:45;97946.50;;;10.53;87.42
55070;BME280;40967;52.070;8.596;2023-03-14T00:23:17;97974.69;;;10.72;87.05
55070;BME280;40967;52.070;8.596;2023-03-14T00:25:42;97991.16;;;10.88;87.19
55070;BME280;40967;52.070;8.596;2023-03-14T00:28:10;97891.34;;;10.28;86.96
55070;BME280;40967;52.070;8.596;2023-03-14T00:30:42;97875.16;;;10.19;87.19
55070;BME280;40967;52.070;8.596;2023-03-14T00:33:15;97932.94;;;10.53;87.06
55070;BME280;40967;52.070;8.596;2023-03-14T00:35:43;97961.69;;;10.66;87.11
55070;BME280;40967;52.070;8.596;2023-03-14T00:38:33;97894.13;;;10.19;87.48
55070;BME280;40967;52.070;8.596;2023-03-14T00:41:09;97998.06;;;10.85;87.27
55070;BME280;40967;52.070;8.596;2023-03-14T00:43:49;97991.81;;;10.85;87.03
55070;BME280;40967;52.070;8.596;2023-03-14T00:46:16;97867.28;;;10.06;87.17
55070;BME280;40967;52.070;8.596;2023-03-14T00:48:45;97938.91;;;10.58;87.47
55070;BME280;40967;52.070;8.596;2023-03-14T00:51:16;97902.78;;;10.34;87.50
55070;BME280;40967;52.070;8.596;2023-03-14T00:53:45;97877.06;;;10.19;87.60
55070;BME280;40967;52.070;8.596;2023-03-14T00:56:14;97853.81;;;10.18;87.26
55070;BME280;40967;52.070;8.596;2023-03-14T00:58:40;97875.91;;;10.28;87.71
55070;BME280;40967;52.070;8.596;2023-03-14T01:01:09;97906.06;;;10.39;87.53
55070;BME280;40967;52.070;8.596;2023-03-14T01:03:36;97937.34;;;10.57;87.67
55070;BME280;40967;52.070;8.596;2023-03-14T01:06:13;97966.91;;;10.71;87.85
55070;BME280;40967;52.070;8.596;2023-03-14T01:08:39;97957.44;;;10.77;87.37
55070;BME280;40967;52.070;8.596;2023-03-14T01:11:07;97897.03;;;10.35;87.32
55070;BME280;40967;52.070;8.596;2023-03-14T01:13:33;97971.78;;;10.77;87.66
55070;BME280;40967;52.070;8.596;2023-03-14T01:16:04;97963.63;;;10.77;87.37
55070;BME280;40967;52.070;8.596;2023-03-14T01:18:55;97931.59;;;10.59;87.17
55070;BME280;40967;52.070;8.596;2023-03-14T01:21:39;97844.97;;;10.09;86.78
55070;BME280;40967;52.070;8.596;2023-03-14T01:24:05;97846.19;;;10.11;86.90
55070;BME280;40967;52.070;8.596;2023-03-14T01:26:32;97903.50;;;10.63;86.78
55070;BME280;40967;52.070;8.596;2023-03-14T01:29:07;97837.34;;;10.23;86.32
55070;BME280;40967;52.070;8.596;2023-03-14T01:31:38;97881.28;;;10.49;86.30
55070;BME280;40967;52.070;8.596;2023-03-14T01:34:27;97933.41;;;10.87;86.28
55070;BME280;40967;52.070;8.596;2023-03-14T01:36:58;97826.44;;;10.32;85.98
55070;BME280;40967;52.070;8.596;2023-03-14T01:39:29;97794.00;;;10.23;85.79
55070;BME280;40967;52.070;8.596;2023-03-14T01:41:57;97814.66;;;10.27;85.54
55070;BME280;40967;52.070;8.596;2023-03-14T01:44:27;97849.75;;;10.45;85.72
55070;BME280;40967;52.070;8.596;2023-03-14T01:46:56;97831.94;;;10.23;85.84
55070;BME280;40967;52.070;8.596;2023-03-14T01:49:25;97931.16;;;10.89;85.52
55070;BME280;40967;52.070;8.596;2023-03-14T01:54:34;97831.06;;;10.31;85.39
55070;BME280;40967;52.070;8.596;2023-03-14T01:57:13;97831.72;;;10.28;85.31
55070;BME280;40967;52.070;8.596;2023-03-14T01:59:40;97906.50;;;10.82;85.51
55070;BME280;40967;52.070;8.596;2023-03-14T02:02:12;97851.16;;;10.30;84.91
55070;BME280;40967;52.070;8.596;2023-03-14T02:04:38;97885.41;;;10.67;84.88
55070;BME280;40967;52.070;8.596;2023-03-14T02:07:20;97919.31;;;10.94;85.12
55070;BME280;40967;52.070;8.596;2023-03-14T02:09:54;97868.38;;;10.67;85.03
55070;BME280;40967;52.070;8.596;2023-03-14T02:12:21;97786.78;;;10.27;84.51
55070;BME280;40967;52.070;8.596;2023-03-14T02:14:47;97801.59;;;10.29;84.70
55070;BME280;40967;52.070;8.596;2023-03-14T02:17:22;97877.56;;;10.86;84.51
55070;BME280;40967;52.070;8.596;2023-03-14T02:22:37;97783.84;;;10.32;84.12
55070;BME280;40967;52.070;8.596;2023-03-14T02:25:20;97855.97;;;10.78;84.27
55070;BME280;40967;52.070;8.596;2023-03-14T02:27:48;97782.81;;;10.24;84.14
55070;BME280;40967;52.070;8.596;2023-03-14T02:30:21;97839.28;;;10.55;84.22
55070;BME280;40967;52.070;8.596;2023-03-14T02:32:52;97810.94;;;10.32;84.41
55070;BME280;40967;52.070;8.596;2023-03-14T02:35:34;97868.00;;;10.56;86.67
55070;BME280;40967;52.070;8.596;2023-03-14T02:44:55;97904.69;;;9.83;95.74
55070;BME280;40967;52.070;8.596;2023-03-14T02:47:35;97973.41;;;9.99;96.14
55070;BME280;40967;52.070;8.596;2023-03-14T02:50:18;97854.22;;;9.21;96.80
55070;BME280;40967;52.070;8.596;2023-03-14T02:52:48;97846.31;;;9.07;97.89
55070;BME280;40967;52.070;8.596;2023-03-14T02:55:21;97827.44;;;8.90;98.89
55070;BME280;40967;52.070;8.596;2023-03-14T02:57:53;97933.69;;;9.54;99.60
55070;BME280;40967;52.070;8.596;2023-03-14T03:00:19;97833.53;;;8.78;100.00
55070;BME280;40967;52.070;8.596;2023-03-14T03:02:48;97898.09;;;9.26;100.00
55070;BME280;40967;52.070;8.596;2023-03-14T03:05:39;97822.25;;;8.76;100.00
55070;BME280;40967;52.070;8.596;2023-03-14T03:10:59;97853.72;;;8.89;100.00
55070;BME280;40967;52.070;8.596;2023-03-14T03:13:25;97814.34;;;8.63;100.00
55070;BME280;40967;52.070;8.596;2023-03-14T03:16:00;97912.63;;;9.22;100.00
55070;BME280;40967;52.070;8.596;2023-03-14T03:18:31;97851.50;;;8.74;100.00
55070;BME280;40967;52.070;8.596;2023-03-14T03:21:05;97858.19;;;8.77;100.00
55070;BME280;40967;52.070;8.596;2023-03-14T03:23:32;97831.22;;;8.51;100.00
55070;BME280;40967;52.070;8.596;2023-03-14T03:25:58;97920.63;;;9.01;100.00
55070;BME280;40967;52.070;8.596;2023-03-14T03:28:24;97798.81;;;8.17;100.00
55070;BME280;40967;52.070;8.596;2023-03-14T03:30:54;97775.66;;;8.07;100.00
55070;BME280;40967;52.070;8.596;2023-03-14T03:33:19;97813.13;;;8.35;100.00
55070;BME280;40967;52.070;8.596;2023-03-14T03:35:49;97807.56;;;8.31;100.00
55070;BME280;40967;52.070;8.596;2023-03-14T03:38:18;97797.56;;;8.15;100.00
55070;BME280;40967;52.070;8.596;2023-03-14T03:40:45;97847.44;;;8.34;100.00
55070;BME280;40967;52.070;8.596;2023-03-14T03:43:13;97771.34;;;7.98;100.00
55070;BME280;40967;52.070;8.596;2023-03-14T03:45:46;97856.81;;;8.45;100.00
55070;BME280;40967;52.070;8.596;2023-03-14T03:48:12;97861.72;;;8.52;100.00
55070;BME280;40967;52.070;8.596;2023-03-14T03:50:46;97820.75;;;8.16;100.00
55070;BME280;40967;52.070;8.596;2023-03-14T03:53:14;97900.50;;;8.56;100.00
55070;BME280;40967;52.070;8.596;2023-03-14T03:55:42;97838.69;;;8.20;100.00
55070;BME280;40967;52.070;8.596;2023-03-14T03:58:28;97857.00;;;8.32;100.00
55070;BME280;40967;52.070;8.596;2023-03-14T04:01:21;97905.09;;;8.64;100.00
55070;BME280;40967;52.070;8.596;2023-03-14T04:03:51;97796.28;;;7.95;100.00
55070;BME280;40967;52.070;8.596;2023-03-14T04:06:16;97810.28;;;7.97;100.00
55070;BME280;40967;52.070;8.596;2023-03-14T04:08:42;97888.75;;;8.43;100.00
55070;BME280;40967;52.070;8.596;2023-03-14T04:11:28;97801.84;;;7.90;100.00
55070;BME280;40967;52.070;8.596;2023-03-14T04:14:07;97882.09;;;8.41;100.00
55070;BME280;40967;52.070;8.596;2023-03-14T04:16:49;97861.09;;;8.12;100.00
55070;BME280;40967;52.070;8.596;2023-03-14T04:19:24;97920.41;;;8.51;100.00
55070;BME280;40967;52.070;8.596;2023-03-14T04:22:32;97815.66;;;7.88;100.00
55070;BME280;40967;52.070;8.596;2023-03-14T04:25:00;97791.38;;;7.80;100.00
55070;BME280;40967;52.070;8.596;2023-03-14T04:27:45;97864.09;;;8.19;100.00
55070;BME280;40967;52.070;8.596;2023-03-14T04:30:25;97782.00;;;7.69;100.00
55070;BME280;40967;52.070;8.596;2023-03-14T04:32:53;97900.69;;;8.42;100.00
55070;BME280;40967;52.070;8.596;2023-03-14T04:35:24;97810.59;;;7.87;100.00
55070;BME280;40967;52.070;8.596;2023-03-14T04:37:50;97803.75;;;7.81;100.00
55070;BME280;40967;52.070;8.596;2023-03-14T04:40:19;97832.84;;;8.10;100.00
55070;BME280;40967;52.070;8.596;2023-03-14T04:42:44;97852.34;;;8.15;100.00
55070;BME280;40967;52.070;8.596;2023-03-14T04:45:09;97821.69;;;7.94;100.00
55070;BME280;40967;52.070;8.596;2023-03-14T04:47:35;97823.78;;;8.05;100.00
55070;BME280;40967;52.070;8.596;2023-03-14T04:53:38;97795.66;;;7.89;100.00
55070;BME280;40967;52.070;8.596;2023-03-14T04:56:09;97829.31;;;8.09;100.00
55070;BME280;40967;52.070;8.596;2023-03-14T04:58:53;97854.78;;;8.25;100.00
55070;BME280;40967;52.070;8.596;2023-03-14T05:04:20;97788.84;;;7.83;100.00
55070;BME280;40967;52.070;8.596;2023-03-14T05:06:49;97835.03;;;8.16;100.00
55070;BME280;40967;52.070;8.596;2023-03-14T05:09:40;97778.66;;;7.72;100.00
55070;BME280;40967;52.070;8.596;2023-03-14T05:12:09;97788.19;;;7.78;100.00
55070;BME280;40967;52.070;8.596;2023-03-14T05:14:37;97809.47;;;7.96;100.00
55070;BME280;40967;52.070;8.596;2023-03-14T05:17:07;97738.50;;;7.53;100.00
55070;BME280;40967;52.070;8.596;2023-03-14T05:20:10;97877.63;;;8.36;100.00
55070;BME280;40967;52.070;8.596;2023-03-14T05:22:51;97871.13;;;8.37;100.00
55070;BME280;40967;52.070;8.596;2023-03-14T05:25:42;97872.38;;;8.40;100.00
55070;BME280;40967;52.070;8.596;2023-03-14T05:28:08;97831.22;;;8.17;100.00
55070;BME280;40967;52.070;8.596;2023-03-14T05:33:48;97752.00;;;7.79;100.00
55070;BME280;40967;52.070;8.596;2023-03-14T05:36:14;97815.34;;;8.24;100.00
55070;BME280;40967;52.070;8.596;2023-03-14T05:38:42;97777.22;;;8.08;100.00
55070;BME280;40967;52.070;8.596;2023-03-14T05:41:08;97846.78;;;8.54;100.00
55070;BME280;40967;52.070;8.596;2023-03-14T05:43:33;97735.78;;;7.79;100.00
55070;BME280;40967;52.070;8.596;2023-03-14T05:45:58;97793.41;;;8.17;100.00
55070;BME280;40967;52.070;8.596;2023-03-14T05:48:24;97801.19;;;8.27;100.00
55070;BME280;40967;52.070;8.596;2023-03-14T05:50:56;97852.03;;;8.59;100.00
55070;BME280;40967;52.070;8.596;2023-03-14T05:53:22;97832.31;;;8.50;100.00
55070;BME280;40967;52.070;8.596;2023-03-14T05:58:33;97775.81;;;8.11;100.00
55070;BME280;40967;52.070;8.596;2023-03-14T06:01:02;97826.91;;;8.50;100.00
55070;BME280;40967;52.070;8.596;2023-03-14T06:03:28;97843.44;;;8.57;100.00
55070;BME280;40967;52.070;8.596;2023-03-14T06:05:54;97819.94;;;8.49;100.00
55070;BME280;40967;52.070;8.596;2023-03-14T06:08:22;97780.06;;;8.29;100.00
55070;BME280;40967;52.070;8.596;2023-03-14T06:10:47;97776.91;;;8.27;100.00
55070;BME280;40967;52.070;8.596;2023-03-14T06:13:16;97743.69;;;8.01;100.00
55070;BME280;40967;52.070;8.596;2023-03-14T06:15:41;97849.63;;;8.66;100.00
55070;BME280;40967;52.070;8.596;2023-03-14T06:18:11;97848.03;;;8.65;100.00
55070;BME280;40967;52.070;8.596;2023-03-14T06:20:40;97780.53;;;8.23;100.00
55070;BME280;40967;52.070;8.596;2023-03-14T06:23:09;97738.63;;;7.91;100.00
55070;BME280;40967;52.070;8.596;2023-03-14T06:25:36;97857.59;;;8.63;100.00
55070;BME280;40967;52.070;8.596;2023-03-14T06:28:08;97855.22;;;8.61;100.00
55070;BME280;40967;52.070;8.596;2023-03-14T06:30:46;97813.91;;;8.35;100.00
55070;BME280;40967;52.070;8.596;2023-03-14T06:33:12;97804.03;;;8.22;100.00
55070;BME280;40967;52.070;8.596;2023-03-14T06:35:40;97859.66;;;8.57;100.00
55070;BME280;40967;52.070;8.596;2023-03-14T06:38:20;97856.00;;;8.53;100.00
55070;BME280;40967;52.070;8.596;2023-03-14T06:40:55;97845.38;;;8.40;100.00
55070;BME280;40967;52.070;8.596;2023-03-14T06:43:38;97860.16;;;8.51;100.00
55070;BME280;40967;52.070;8.596;2023-03-14T06:46:05;97878.91;;;8.47;100.00
55070;BME280;40967;52.070;8.596;2023-03-14T06:48:34;97833.00;;;8.13;100.00
55070;BME280;40967;52.070;8.596;2023-03-14T06:51:07;97865.72;;;8.37;100.00
55070;BME280;40967;52.070;8.596;2023-03-14T06:53:33;97771.69;;;7.71;100.00
55070;BME280;40967;52.070;8.596;2023-03-14T06:56:01;97789.13;;;7.82;100.00
55070;BME280;40967;52.070;8.596;2023-03-14T06:58:27;97823.28;;;8.03;100.00
55070;BME280;40967;52.070;8.596;2023-03-14T07:00:53;97872.41;;;8.31;100.00
55070;BME280;40967;52.070;8.596;2023-03-14T07:03:19;97816.75;;;7.96;100.00
55070;BME280;40967;52.070;8.596;2023-03-14T07:05:45;97866.84;;;8.28;100.00
55070;BME280;40967;52.070;8.596;2023-03-14T07:08:10;97815.19;;;7.95;100.00
55070;BME280;40967;52.070;8.596;2023-03-14T07:10:36;97786.28;;;7.78;100.00
55070;BME280;40967;52.070;8.596;2023-03-14T07:13:01;97853.97;;;8.25;100.00
55070;BME280;40967;52.070;8.596;2023-03-14T07:15:26;97869.69;;;8.31;100.00
55070;BME280;40967;52.070;8.596;2023-03-14T07:17:52;97806.94;;;8.00;100.00
55070;BME280;40967;52.070;8.596;2023-03-14T07:20:17;97833.44;;;8.15;100.00
55070;BME280;40967;52.070;8.596;2023-03-14T07:22:52;97831.06;;;8.14;100.00
55070;BME280;40967;52.070;8.596;2023-03-14T07:25:36;97792.16;;;7.80;100.00
55070;BME280;40967;52.070;8.596;2023-03-14T07:28:01;97805.97;;;7.96;100.00
55070;BME280;40967;52.070;8.596;2023-03-14T07:30:26;97770.06;;;7.70;100.00
55070;BME280;40967;52.070;8.596;2023-03-14T07:32:52;97829.16;;;8.05;100.00
55070;BME280;40967;52.070;8.596;2023-03-14T07:35:20;97791.38;;;7.88;100.00
55070;BME280;40967;52.070;8.596;2023-03-14T07:37:48;97872.72;;;8.38;100.00
55070;BME280;40967;52.070;8.596;2023-03-14T07:40:13;97843.47;;;8.23;100.00
55070;BME280;40967;52.070;8.596;2023-03-14T07:42:44;97821.06;;;8.05;100.00
55070;BME280;40967;52.070;8.596;2023-03-14T07:45:10;97775.78;;;7.77;100.00
55070;BME280;40967;52.070;8.596;2023-03-14T07:47:36;97782.97;;;7.81;100.00
55070;BME280;40967;52.070;8.596;2023-03-14T07:50:02;97858.72;;;8.28;100.00
55070;BME280;40967;52.070;8.596;2023-03-14T07:52:28;97860.78;;;8.31;100.00
55070;BME280;40967;52.070;8.596;2023-03-14T07:54:54;97820.91;;;8.11;100.00
55070;BME280;40967;52.070;8.596;2023-03-14T07:57:19;97884.16;;;8.52;100.00
55070;BME280;40967;52.070;8.596;2023-03-14T07:59:44;97803.91;;;8.10;100.00
55070;BME280;40967;52.070;8.596;2023-03-14T08:02:11;97881.59;;;8.56;100.00
55070;BME280;40967;52.070;8.596;2023-03-14T08:04:38;97798.81;;;8.08;100.00
55070;BME280;40967;52.070;8.596;2023-03-14T08:07:03;97816.63;;;8.18;100.00
55070;BME280;40967;52.070;8.596;2023-03-14T08:09:29;97801.34;;;8.14;100.00
55070;BME280;40967;52.070;8.596;2023-03-14T08:11:54;97822.38;;;8.25;100.00
55070;BME280;40967;52.070;8.596;2023-03-14T08:14:20;97851.09;;;8.47;100.00
55070;BME280;40967;52.070;8.596;2023-03-14T08:16:45;97836.97;;;8.33;100.00
55070;BME280;40967;52.070;8.596;2023-03-14T08:19:11;97817.06;;;8.20;100.00
55070;BME280;40967;52.070;8.596;2023-03-14T08:21:36;97858.69;;;8.53;100.00
55070;BME280;40967;52.070;8.596;2023-03-14T08:24:02;97807.72;;;8.18;100.00
55070;BME280;40967;52.070;8.596;2023-03-14T08:26:27;97871.91;;;8.55;100.00
55070;BME280;40967;52.070;8.596;2023-03-14T08:28:53;97819.00;;;8.28;100.00
55070;BME280;40967;52.070;8.596;2023-03-14T08:31:18;97819.81;;;8.37;100.00
55070;BME280;40967;52.070;8.596;2023-03-14T08:33:49;97780.72;;;8.09;100.00
55070;BME280;40967;52.070;8.596;2023-03-14T08:36:17;97864.25;;;8.65;100.00
55070;BME280;40967;52.070;8.596;2023-03-14T08:38:43;97796.59;;;8.19;100.00
55070;BME280;40967;52.070;8.596;2023-03-14T08:41:08;97893.31;;;8.85;100.00
55070;BME280;40967;52.070;8.596;2023-03-14T08:43:34;97826.44;;;8.48;100.00
55070;BME280;40967;52.070;8.596;2023-03-14T08:46:00;97873.44;;;8.81;100.00
55070;BME280;40967;52.070;8.596;2023-03-14T08:48:27;97845.97;;;8.62;100.00
55070;BME280;40967;52.070;8.596;2023-03-14T08:51:09;97843.25;;;8.62;100.00
55070;BME280;40967;52.070;8.596;2023-03-14T08:53:36;97829.75;;;8.62;100.00
55070;BME280;40967;52.070;8.596;2023-03-14T08:56:01;97822.78;;;8.61;100.00
55070;BME280;40967;52.070;8.596;2023-03-14T08:58:37;97892.63;;;9.05;100.00
55070;BME280;40967;52.070;8.596;2023-03-14T09:01:05;97851.47;;;8.83;100.00
55070;BME280;40967;52.070;8.596;2023-03-14T09:03:31;97859.09;;;8.98;100.00
55070;BME280;40967;52.070;8.596;2023-03-14T09:06:01;97842.56;;;8.91;100.00
55070;BME280;40967;52.070;8.596;2023-03-14T09:08:28;97856.34;;;9.06;100.00
55070;BME280;40967;52.070;8.596;2023-03-14T09:10:53;97852.66;;;9.11;100.00
55070;BME280;40967;52.070;8.596;2023-03-14T09:13:19;97835.66;;;9.02;100.00
55070;BME280;40967;52.070;8.596;2023-03-14T09:15:44;97851.19;;;9.22;100.00
55070;BME280;40967;52.070;8.596;2023-03-14T09:18:09;97878.97;;;9.40;100.00
55070;BME280;40967;52.070;8.596;2023-03-14T09:20:34;97820.72;;;9.04;100.00
55070;BME280;40967;52.070;8.596;2023-03-14T09:23:00;97834.06;;;9.09;100.00
55070;BME280;40967;52.070;8.596;2023-03-14T09:25:26;97865.63;;;9.35;100.00
55070;BME280;40967;52.070;8.596;2023-03-14T09:27:51;97836.88;;;9.22;100.00
55070;BME280;40967;52.070;8.596;2023-03-14T09:30:17;97853.84;;;9.31;100.00
55070;BME280;40967;52.070;8.596;2023-03-14T09:32:42;97760.69;;;8.82;100.00
55070;BME280;40967;52.070;8.596;2023-03-14T09:35:10;97792.59;;;8.97;100.00
55070;BME280;40967;52.070;8.596;2023-03-14T09:37:35;97811.00;;;9.12;100.00
55070;BME280;40967;52.070;8.596;2023-03-14T09:40:00;97841.41;;;9.38;100.00
55070;BME280;40967;52.070;8.596;2023-03-14T09:42:36;97856.91;;;9.58;100.00
55070;BME280;40967;52.070;8.596;2023-03-14T09:45:34;97891.47;;;9.82;100.00
55070;BME280;40967;52.070;8.596;2023-03-14T09:48:23;97885.22;;;9.90;100.00
55070;BME280;40967;52.070;8.596;2023-03-14T09:51:43;97882.31;;;9.95;100.00
55070;BME280;40967;52.070;8.596;2023-03-14T10:00:26;97891.88;;;10.21;100.00
55070;BME280;40967;52.070;8.596;2023-03-14T10:02:56;97887.50;;;10.29;100.00
55070;BME280;40967;52.070;8.596;2023-03-14T10:05:25;97888.22;;;10.38;100.00
55070;BME280;40967;52.070;8.596;2023-03-14T10:07:55;97820.81;;;9.95;100.00
55070;BME280;40967;52.070;8.596;2023-03-14T10:10:32;97903.56;;;10.34;100.00
55070;BME280;40967;52.070;8.596;2023-03-14T10:16:48;97886.53;;;10.04;100.00
55070;BME280;40967;52.070;8.596;2023-03-14T10:19:27;97903.97;;;10.24;100.00
55070;BME280;40967;52.070;8.596;2023-03-14T10:22:04;97909.84;;;10.26;100.00
55070;BME280;40967;52.070;8.596;2023-03-14T10:24:37;97913.03;;;10.28;100.00
55070;BME280;40967;52.070;8.596;2023-03-14T10:27:08;97919.25;;;10.28;100.00
55070;BME280;40967;52.070;8.596;2023-03-14T10:29:55;97923.13;;;10.19;100.00
55070;BME280;40967;52.070;8.596;2023-03-14T10:32:28;97923.31;;;10.14;100.00
55070;BME280;40967;52.070;8.596;2023-03-14T10:38:12;98008.28;;;10.09;100.00
55070;BME280;40967;52.070;8.596;2023-03-14T10:44:38;98024.50;;;9.26;100.00
55070;BME280;40967;52.070;8.596;2023-03-14T10:47:12;98025.63;;;8.90;100.00
55070;BME280;40967;52.070;8.596;2023-03-14T10:50:30;98044.56;;;8.56;100.00
55070;BME280;40967;52.070;8.596;2023-03-14T10:56:35;98025.16;;;8.06;100.00
55070;BME280;40967;52.070;8.596;2023-03-14T11:39:04;98351.91;;;6.17;100.00
55070;BME280;40967;52.070;8.596;2023-03-14T11:45:10;98391.94;;;5.81;100.00
55070;BME280;40967;52.070;8.596;2023-03-14T11:55:39;98431.03;;;5.55;100.00
55070;BME280;40967;52.070;8.596;2023-03-14T11:58:34;98411.00;;;5.42;100.00
55070;BME280;40967;52.070;8.596;2023-03-14T12:01:09;98409.25;;;5.33;100.00
55070;BME280;40967;52.070;8.596;2023-03-14T12:04:19;98451.97;;;5.58;100.00
55070;BME280;40967;52.070;8.596;2023-03-14T12:07:12;98394.47;;;5.07;100.00
55070;BME280;40967;52.070;8.596;2023-03-14T12:09:40;98434.88;;;5.25;100.00
55070;BME280;40967;52.070;8.596;2023-03-14T12:12:14;98458.41;;;5.38;100.00
55070;BME280;40967;52.070;8.596;2023-03-14T12:14:55;98508.06;;;5.69;100.00
55070;BME280;40967;52.070;8.596;2023-03-14T12:17:35;98428.78;;;5.15;100.00
55070;BME280;40967;52.070;8.596;2023-03-14T12:20:05;98484.72;;;5.41;100.00
55070;BME280;40967;52.070;8.596;2023-03-14T12:22:53;98431.59;;;5.05;100.00
55070;BME280;40967;52.070;8.596;2023-03-14T12:25:29;98452.22;;;5.09;100.00
55070;BME280;40967;52.070;8.596;2023-03-14T12:35:51;98543.50;;;5.24;100.00
55070;BME280;40967;52.070;8.596;2023-03-14T12:41:40;98520.31;;;5.00;99.64
55070;BME280;40967;52.070;8.596;2023-03-14T12:44:39;98597.41;;;5.66;100.00
55070;BME280;40967;52.070;8.596;2023-03-14T12:49:48;98605.84;;;5.89;99.41
55070;BME280;40967;52.070;8.596;2023-03-14T12:52:27;98561.13;;;5.64;99.77
55070;BME280;40967;52.070;8.596;2023-03-14T12:55:12;98608.88;;;6.06;100.00
55070;BME280;40967;52.070;8.596;2023-03-14T12:57:54;98613.09;;;6.12;99.56
55070;BME280;40967;52.070;8.596;2023-03-14T13:00:29;98630.06;;;6.12;99.19
55070;BME280;40967;52.070;8.596;2023-03-14T13:03:22;98545.81;;;5.59;98.47
55070;BME280;40967;52.070;8.596;2023-03-14T13:06:03;98638.66;;;6.14;98.04
55070;BME280;40967;52.070;8.596;2023-03-14T13:11:21;98611.75;;;5.91;97.43
55070;BME280;40967;52.070;8.596;2023-03-14T13:17:54;98616.88;;;5.25;96.51
55070;BME280;40967;52.070;8.596;2023-03-14T13:20:28;98698.97;;;5.51;97.48
55070;BME280;40967;52.070;8.596;2023-03-14T13:23:28;98731.47;;;5.54;98.65
55070;BME280;40967;52.070;8.596;2023-03-14T13:26:11;98666.16;;;5.15;99.34
55070;BME280;40967;52.070;8.596;2023-03-14T13:28:38;98672.34;;;5.16;98.99
55070;BME280;40967;52.070;8.596;2023-03-14T13:31:12;98638.13;;;4.88;99.97
55070;BME280;40967;52.070;8.596;2023-03-14T13:44:44;98738.63;;;4.82;100.00
55070;BME280;40967;52.070;8.596;2023-03-14T13:47:25;98711.59;;;4.58;100.00
55070;BME280;40967;52.070;8.596;2023-03-14T13:50:16;98729.00;;;4.71;100.00
55070;BME280;40967;52.070;8.596;2023-03-14T13:53:03;98799.53;;;5.06;100.00
55070;BME280;40967;52.070;8.596;2023-03-14T13:55:34;98740.88;;;4.59;100.00
55070;BME280;40967;52.070;8.596;2023-03-14T13:57:59;98785.34;;;4.91;100.00
55070;BME280;40967;52.070;8.596;2023-03-14T14:00:27;98771.13;;;4.85;100.00
55070;BME280;40967;52.070;8.596;2023-03-14T14:02:54;98747.53;;;4.77;100.00
55070;BME280;40967;52.070;8.596;2023-03-14T14:05:23;98781.81;;;4.95;100.00
55070;BME280;40967;52.070;8.596;2023-03-14T14:07:54;98760.38;;;4.85;100.00
55070;BME280;40967;52.070;8.596;2023-03-14T14:10:21;98742.19;;;4.67;98.34
55070;BME280;40967;52.070;8.596;2023-03-14T14:12:57;98775.72;;;4.85;97.24
55070;BME280;40967;52.070;8.596;2023-03-14T14:15:29;98770.84;;;4.87;97.19
55070;BME280;40967;52.070;8.596;2023-03-14T14:18:12;98761.19;;;4.86;90.49
55070;BME280;40967;52.070;8.596;2023-03-14T14:21:25;98762.78;;;4.87;88.15
55070;BME280;40967;52.070;8.596;2023-03-14T14:24:11;98777.25;;;4.96;87.15
55070;BME280;40967;52.070;8.596;2023-03-14T14:27:15;98779.41;;;4.94;84.45
55070;BME280;40967;52.070;8.596;2023-03-14T14:29:34;98814.28;;;5.14;82.84
55070;BME280;40967;52.070;8.596;2023-03-14T14:32:13;98889.13;;;5.55;82.35
55070;BME280;40967;52.070;8.596;2023-03-14T14:34:46;98925.91;;;5.75;80.55
55070;BME280;40967;52.070;8.596;2023-03-14T14:37:23;98931.31;;;5.65;79.50
55070;BME280;40967;52.070;8.596;2023-03-14T14:39:50;98943.97;;;5.64;77.61
55070;BME280;40967;52.070;8.596;2023-03-14T14:42:19;98894.06;;;5.28;78.12
55070;BME280;40967;52.070;8.596;2023-03-14T14:44:56;98964.91;;;5.72;78.08
55070;BME280;40967;52.070;8.596;2023-03-14T14:47:27;98966.50;;;5.78;76.08
55070;BME280;40967;52.070;8.596;2023-03-14T14:49:55;98964.59;;;5.89;76.46
55070;BME280;40967;52.070;8.596;2023-03-14T14:52:43;98975.31;;;5.99;74.44
55070;BME280;40967;52.070;8.596;2023-03-14T14:55:33;98981.78;;;5.98;73.42
55070;BME280;40967;52.070;8.596;2023-03-14T15:03:26;99013.59;;;5.81;70.01
55070;BME280;40967;52.070;8.596;2023-03-14T15:05:53;99024.09;;;5.77;70.38
55070;BME280;40967;52.070;8.596;2023-03-14T15:08:20;99032.44;;;5.76;71.12
55070;BME280;40967;52.070;8.596;2023-03-14T15:10:46;99034.31;;;5.75;70.16
55070;BME280;40967;52.070;8.596;2023-03-14T15:13:11;99035.19;;;5.61;70.02
55070;BME280;40967;52.070;8.596;2023-03-14T15:15:36;99054.53;;;5.63;70.83
55070;BME280;40967;52.070;8.596;2023-03-14T15:18:02;99054.53;;;5.68;71.18
55070;BME280;40967;52.070;8.596;2023-03-14T15:20:27;99062.88;;;5.76;71.84
55070;BME280;40967;52.070;8.596;2023-03-14T15:22:53;99074.41;;;5.77;71.87
55070;BME280;40967;52.070;8.596;2023-03-14T15:25:18;99076.28;;;5.82;72.15
55070;BME280;40967;52.070;8.596;2023-03-14T15:27:44;99067.69;;;5.74;71.71
55070;BME280;40967;52.070;8.596;2023-03-14T15:30:13;99080.88;;;5.76;71.94
55070;BME280;40967;52.070;8.596;2023-03-14T15:32:40;99093.25;;;5.77;71.54
55070;BME280;40967;52.070;8.596;2023-03-14T15:35:05;99098.09;;;5.70;70.53
55070;BME280;40967;52.070;8.596;2023-03-14T15:37:31;99099.19;;;5.69;70.59
55070;BME280;40967;52.070;8.596;2023-03-14T15:39:56;99100.53;;;5.71;71.07
55070;BME280;40967;52.070;8.596;2023-03-14T15:42:24;99105.94;;;5.71;69.05
55070;BME280;40967;52.070;8.596;2023-03-14T15:44:50;99110.22;;;5.72;69.29
55070;BME280;40967;52.070;8.596;2023-03-14T15:47:15;99115.31;;;5.74;69.11
55070;BME280;40967;52.070;8.596;2023-03-14T15:49:41;99117.72;;;5.80;68.94
55070;BME280;40967;52.070;8.596;2023-03-14T15:52:07;99124.47;;;5.78;67.31
55070;BME280;40967;52.070;8.596;2023-03-14T15:54:33;99125.00;;;5.70;67.04
55070;BME280;40967;52.070;8.596;2023-03-14T15:56:59;99137.41;;;5.76;66.68
55070;BME280;40967;52.070;8.596;2023-03-14T15:59:25;99138.47;;;5.75;66.16